Weather
Algoa Flying ClubBookingsEnt 1064(rendered 2017-03-25 13:31:10) Member: Guest [54.205.251.237- private]
Go back one day  Today  Go forward one day
00h00-24h00  00h00-12h00  12h00-24h00  06h00-22h00  08h00-18h00   Bookingsheet Key 

Sunrise: 06:24B

Full view Bookings for Saturday, 25th March 2017

Wings & Wheels - Uitenhage 31March & 1April 2017

Sunset: 18:21B

 06h0007h0008h0009h0010h0011h0012h0013h0014h0015h0016h0017h0018h0019h0020h0021h00

ZU-WCG

Airplane company NTCA

Maintenance

ZS-KEO

Cessna C152 Single Engine

ZS-MXS

Cessna C152 Single Engine

ZS-PKO

Cessna C152 Single Engine

ZS-PKS

Cessna C152 Single Engine

ZS-KSF

Cessna C172 Single Engine 4 seater

Booked

ZS-MBP

Cessna C172 Single Engine 4 seater

ZS-KND

Cessna C72R Complex Single Engine

Elite S812 SE

Elite Simulators FNPTII

Elite S812 ME

Elite Simulators FNPT II

ZS-IHX

Beechcraft Multi Engine Piston

FAPE METAR 251100Z 24015KT 9999 FEW030 21/11 Q1025 NOSIG
FAGG METAR 251100Z 15008KT 110V190 9999 FEW040 19/09 Q1025

Clayton Staples

CEO / Flight Instructor Gr II

Mike Thompson

Chief Flight Instructor

Russell Abrey

Flight Instructor Gr II

Booked

James Helliwell

Flight Instructor Gr lll

Alex Todd

Flight Instructor Gr ll

Russell Phillips

Flight Instructor Gr II

Dave Anderson

Flight Instructor Gr II

Eric van der Merwe

Flight Instructor GrII

Dale Miskin

Briefing / Groundschool

Abraham Muhumuza

Briefing / Ground School

Stephan Smit

MADIBA SIM STUDENTS ONLY

Sophia Sudak

TEFL ENGLISH TEACHER

George Stewart

DFE

Tony van Vliet

DFE

FAPE TAF 251000Z 2512/2612 25010KT 9999 FEW025 SCT040    BECMG 2516/2518 12005KT 9999 BKN030    BECMG 2521/2523 03007KT CAVOK    TX24/2512ZTN15/2603Z
FAGG TAF 251000Z 2512/2612 16010KT 9999 FEW030    BECMG 2518/2520 07006KT    FM260000 01008KT CAVOK    TX27/2610ZTN09/2600Z

Exam Station 1

CAA Exams

Exam Station 2

CAA Exams

Exam Station 3

CAA Exams

Upstairs Lecture

Upstairs

Down Lecture Roo

Downstairs

Logger

GPS Logger

Clubhouse

Functions

Braai Area

Outdoor Braai

Gremlins Grotto

Pub

 06h0007h0008h0009h0010h0011h0012h0013h0014h0015h0016h0017h0018h0019h0020h0021h00

index.php last modified on Wed 13 Jun 2012 7:48 PM